Terminal Aerodrome Forecast
Issued by NWS

Home | Current Version | Previous Version | Text Only | Print | Product List | Glossary On
Versions: 1 2 3 4 5 6 7 8 9 10 11 12 13 14 15 16 17 18 19 20
000
FTUS43 KDLH 221731
TAFHYR
TAF
KHYR 221731Z 2218/2318 14004KT P6SM BKN100 BKN200
     FM222200 13005KT P6SM VCSH BKN060 BKN110
     FM230000 11004KT 5SM -SN BKN060 OVC090
     FM230100 11005KT 2SM -SN OVC070
     FM231200 00000KT P6SM OVC008
     FM231500 26005KT P6SM OVC010=

USA.gov is the U.S. government's official web portal to all federal, state and local government web resources and services.